createdAt,value
2018-11-21T00:01:49.916Z,59.70
2018-11-21T00:04:18.981Z,61.90
2018-11-21T00:06:48.065Z,46.43
2018-11-21T00:09:17.323Z,50.80
2018-11-21T00:11:46.342Z,41.10
2018-11-21T00:14:15.437Z,51.77
2018-11-21T00:16:44.692Z,45.13
2018-11-21T00:19:13.888Z,51.83
2018-11-21T00:21:42.986Z,48.73
2018-11-21T00:24:12.180Z,50.60
2018-11-21T00:26:41.238Z,50.37
2018-11-21T00:29:10.318Z,48.97
2018-11-21T00:31:39.478Z,59.47
2018-11-21T00:34:08.510Z,60.77
2018-11-21T00:36:37.621Z,58.37
2018-11-21T00:39:10.389Z,51.73
2018-11-21T00:41:39.718Z,43.63
2018-11-21T00:44:08.780Z,46.63
2018-11-21T00:46:37.820Z,58.83
2018-11-21T00:49:06.857Z,58.87
2018-11-21T00:51:35.844Z,62.00
2018-11-21T00:54:05.130Z,62.83
2018-11-21T00:56:34.551Z,66.90
2018-11-21T00:59:03.257Z,67.33
2018-11-21T01:01:32.383Z,62.90
2018-11-21T01:04:01.490Z,65.90
2018-11-21T01:06:30.584Z,61.47
2018-11-21T01:08:59.668Z,67.57
2018-11-21T01:11:28.714Z,62.93
2018-11-21T01:13:57.867Z,60.23
2018-11-21T01:16:26.951Z,68.77
2018-11-21T01:18:56.162Z,69.90
2018-11-21T01:21:25.257Z,76.83
2018-11-21T01:23:54.355Z,66.97
2018-11-21T01:26:23.348Z,68.93
2018-11-21T01:28:52.394Z,71.67
2018-11-21T01:31:21.540Z,79.40
2018-11-21T01:33:50.560Z,78.07
2018-11-21T01:36:19.809Z,102.67
2018-11-21T01:38:48.926Z,102.47
2018-11-21T01:41:17.960Z,83.63
2018-11-21T01:43:47.087Z,62.27
2018-11-21T01:46:16.209Z,90.80
2018-11-21T01:48:45.238Z,66.70
2018-11-21T01:51:14.390Z,66.83
2018-11-21T01:53:43.494Z,82.27
2018-11-21T01:56:12.580Z,94.70
2018-11-21T01:58:41.720Z,74.77
2018-11-21T02:01:10.869Z,85.80
2018-11-21T02:03:39.944Z,75.67
2018-11-21T02:06:08.907Z,93.40
2018-11-21T02:08:37.950Z,87.57
2018-11-21T02:11:06.987Z,83.00
2018-11-21T02:13:35.882Z,79.93
2018-11-21T02:16:05.248Z,82.93
2018-11-21T02:18:34.132Z,78.80
2018-11-21T02:21:03.298Z,94.23
2018-11-21T02:23:32.313Z,77.23
2018-11-21T02:26:01.206Z,92.37
2018-11-21T02:28:30.348Z,74.57
2018-11-21T02:30:59.393Z,90.90
2018-11-21T02:33:28.492Z,102.27
2018-11-21T02:35:57.540Z,90.00
2018-11-21T02:38:26.688Z,105.90
2018-11-21T02:40:55.611Z,111.47
2018-11-21T02:43:24.531Z,101.27
2018-11-21T02:45:53.500Z,88.30
2018-11-21T02:48:22.411Z,103.40
2018-11-21T02:50:51.331Z,124.20
2018-11-21T02:53:20.288Z,117.97
2018-11-21T02:55:49.378Z,112.87
2018-11-21T02:58:18.302Z,109.60
2018-11-21T03:00:47.457Z,93.10
2018-11-21T03:03:16.386Z,99.60
2018-11-21T03:05:45.453Z,106.93
2018-11-21T03:08:14.694Z,107.87
2018-11-21T03:10:43.729Z,101.07
2018-11-21T03:13:12.654Z,100.53
2018-11-21T03:15:41.874Z,91.67
2018-11-21T03:18:10.932Z,94.93
2018-11-21T03:20:40.143Z,95.67
2018-11-21T03:23:09.372Z,94.87
2018-11-21T03:25:38.464Z,108.30
2018-11-21T03:28:07.551Z,88.30
2018-11-21T03:30:36.653Z,79.53
2018-11-21T03:33:06.093Z,95.90
2018-11-21T03:35:35.139Z,103.10
2018-11-21T03:38:04.224Z,99.20
2018-11-21T03:40:33.289Z,102.53
2018-11-21T03:43:02.448Z,96.00
2018-11-21T03:45:31.522Z,103.53
2018-11-21T03:48:00.578Z,100.27
2018-11-21T03:50:29.708Z,96.93
2018-11-21T03:52:58.921Z,104.20
2018-11-21T03:55:27.950Z,96.07
2018-11-21T03:57:57.095Z,91.90
2018-11-21T04:00:26.199Z,103.87
2018-11-21T04:02:55.344Z,116.63
2018-11-21T04:05:24.383Z,116.53
2018-11-21T04:07:53.279Z,99.37
2018-11-21T04:10:22.215Z,111.23
2018-11-21T04:12:51.367Z,112.67
2018-11-21T04:15:20.452Z,88.17
2018-11-21T04:17:49.509Z,120.70
2018-11-21T04:20:18.446Z,83.13
2018-11-21T04:22:47.515Z,121.60
2018-11-21T04:25:16.594Z,78.30
2018-11-21T04:27:45.560Z,105.97
2018-11-21T04:30:14.604Z,89.73
2018-11-21T04:32:43.931Z,98.30
2018-11-21T04:35:12.852Z,111.57
2018-11-21T04:37:41.795Z,95.87
2018-11-21T04:40:10.724Z,88.40
2018-11-21T04:42:39.741Z,91.10
2018-11-21T04:45:10.221Z,56.20
2018-11-21T04:47:39.312Z,90.57
2018-11-21T04:50:08.635Z,94.23
2018-11-21T04:52:37.703Z,97.53
2018-11-21T04:55:08.029Z,71.47
2018-11-21T04:57:37.119Z,96.73
2018-11-21T05:00:08.106Z,110.40
2018-11-21T05:02:37.193Z,121.63
2018-11-21T05:05:07.903Z,119.50
2018-11-21T05:07:36.937Z,109.80
2018-11-21T05:10:07.046Z,97.45
2018-11-21T05:12:36.475Z,87.63
2018-11-21T05:15:05.831Z,79.73
2018-11-21T05:17:34.853Z,101.63
2018-11-21T05:20:03.996Z,106.80
2018-11-21T05:22:33.129Z,113.43
2018-11-21T05:25:02.126Z,122.50
2018-11-21T05:27:31.165Z,120.87
2018-11-21T05:30:00.227Z,110.97
2018-11-21T05:32:29.310Z,122.33
2018-11-21T05:34:58.566Z,120.40
2018-11-21T05:37:27.698Z,132.53
2018-11-21T05:39:56.696Z,123.20
2018-11-21T05:42:25.744Z,110.73
2018-11-21T05:44:54.787Z,141.90
2018-11-21T05:47:23.779Z,127.33
2018-11-21T05:49:52.942Z,118.27
2018-11-21T05:52:21.993Z,135.90
2018-11-21T05:54:51.074Z,123.97
2018-11-21T05:57:20.215Z,130.87
2018-11-21T05:59:49.267Z,109.93
2018-11-21T06:02:18.578Z,123.03
2018-11-21T06:04:47.703Z,141.50
2018-11-21T06:07:16.746Z,131.10
2018-11-21T06:09:45.794Z,117.70
2018-11-21T06:12:14.899Z,126.63
2018-11-21T06:14:43.925Z,127.77
2018-11-21T06:17:12.916Z,141.73
2018-11-21T06:19:41.967Z,131.57
2018-11-21T06:22:11.246Z,123.90
2018-11-21T06:24:41.320Z,116.30
2018-11-21T06:27:11.344Z,118.20
2018-11-21T06:29:40.859Z,119.40
2018-11-21T06:32:09.942Z,110.17
2018-11-21T06:34:39.097Z,117.27
2018-11-21T06:37:08.143Z,111.87
2018-11-21T06:39:37.221Z,119.40
2018-11-21T06:42:06.621Z,106.53
2018-11-21T06:44:35.614Z,104.20
2018-11-21T06:47:05.150Z,107.97
2018-11-21T06:49:34.269Z,100.00
2018-11-21T06:52:03.417Z,103.53
2018-11-21T06:54:32.411Z,100.27
2018-11-21T06:57:01.464Z,105.97
2018-11-21T06:59:30.508Z,96.43
2018-11-21T07:01:59.583Z,90.70
2018-11-21T07:04:28.642Z,97.67
2018-11-21T07:06:57.737Z,101.03
2018-11-21T07:09:26.836Z,103.07
2018-11-21T07:11:55.913Z,96.10
2018-11-21T07:14:24.965Z,81.07
2018-11-21T07:16:54.074Z,84.40
2018-11-21T07:19:23.205Z,89.03
2018-11-21T07:21:52.243Z,82.93
2018-11-21T07:24:26.279Z,83.30
2018-11-21T07:26:50.496Z,81.47
2018-11-21T07:29:19.531Z,94.70
2018-11-21T07:31:48.623Z,88.73
2018-11-21T07:34:17.679Z,81.47
2018-11-21T07:36:49.626Z,93.93
2018-11-21T07:39:18.670Z,75.50
2018-11-21T07:41:47.740Z,85.50
2018-11-21T07:44:16.821Z,78.60
2018-11-21T07:46:45.856Z,68.50
2018-11-21T07:49:14.902Z,61.37
2018-11-21T07:51:44.003Z,75.00
2018-11-21T07:54:13.039Z,80.40
2018-11-21T07:57:21.012Z,69.87
2018-11-21T08:01:07.926Z,62.80
2018-11-21T08:03:39.099Z,68.03
2018-11-21T08:06:16.555Z,73.73
2018-11-21T08:09:04.699Z,72.57
2018-11-21T08:12:01.389Z,79.27
2018-11-21T08:14:48.558Z,66.23
2018-11-21T08:17:39.467Z,72.67
2018-11-21T08:20:26.692Z,75.40
2018-11-21T08:23:13.600Z,66.77
2018-11-21T08:26:10.819Z,76.27
2018-11-21T08:28:39.888Z,64.63
2018-11-21T08:31:08.893Z,63.10
2018-11-21T08:33:38.040Z,55.90
2018-11-21T08:36:07.436Z,70.13
2018-11-21T08:38:36.537Z,67.63
2018-11-21T08:41:05.800Z,56.73
2018-11-21T08:43:34.864Z,53.37
2018-11-21T08:46:03.961Z,58.87
2018-11-21T08:48:33.030Z,59.47
2018-11-21T08:51:02.050Z,54.07
2018-11-21T08:53:31.157Z,54.53
2018-11-21T08:56:00.298Z,47.80
2018-11-21T08:58:29.336Z,54.30
2018-11-21T09:00:58.337Z,51.37
2018-11-21T09:03:27.479Z,53.17
2018-11-21T09:05:56.511Z,50.27
2018-11-21T09:08:25.939Z,46.50
2018-11-21T09:10:55.064Z,43.07
2018-11-21T09:13:24.107Z,52.17
2018-11-21T09:15:53.486Z,49.17
2018-11-21T09:18:22.149Z,41.77
2018-11-21T09:20:51.252Z,45.90
2018-11-21T09:23:20.284Z,47.33
2018-11-21T09:25:49.774Z,46.50
2018-11-21T09:28:18.944Z,43.00
2018-11-21T09:30:48.035Z,46.57
2018-11-21T09:33:22.671Z,42.50
2018-11-21T09:35:51.702Z,40.97
2018-11-21T09:38:20.804Z,40.13
2018-11-21T09:40:49.931Z,45.97
2018-11-21T09:43:18.995Z,43.63
2018-11-21T09:45:48.084Z,39.23
2018-11-21T09:48:17.134Z,40.23
2018-11-21T09:50:46.165Z,36.17
2018-11-21T09:53:15.260Z,39.07
2018-11-21T09:55:44.321Z,38.53
2018-11-21T09:58:13.355Z,35.20
2018-11-21T10:01:18.458Z,38.70
2018-11-21T10:03:47.538Z,38.87
2018-11-21T10:06:25.026Z,36.33
2018-11-21T10:09:13.173Z,35.40
2018-11-21T10:12:35.297Z,34.90
2018-11-21T10:15:07.808Z,35.30
2018-11-21T10:17:39.992Z,36.80
2018-11-21T10:20:12.102Z,33.03
2018-11-21T10:22:44.352Z,33.03
2018-11-21T10:25:16.999Z,32.23
2018-11-21T10:27:49.009Z,30.67
2018-11-21T10:30:21.116Z,32.43
2018-11-21T10:32:53.212Z,31.47
2018-11-21T10:35:35.910Z,32.90
2018-11-21T10:38:03.665Z,35.13
2018-11-21T10:40:35.567Z,32.03
2018-11-21T10:43:07.717Z,31.30
2018-11-21T10:45:39.789Z,31.13
2018-11-21T10:48:10.806Z,29.87
2018-11-21T10:50:41.538Z,30.80
2018-11-21T10:53:12.357Z,32.83
2018-11-21T10:55:43.049Z,32.87
2018-11-21T10:58:14.043Z,30.00
2018-11-21T11:01:02.287Z,30.90
2018-11-21T11:03:35.664Z,28.33
2018-11-21T11:06:24.335Z,30.10
2018-11-21T11:09:12.374Z,29.10
2018-11-21T11:12:05.125Z,29.83
2018-11-21T11:15:00.334Z,28.27
2018-11-21T11:17:48.370Z,29.33
2018-11-21T11:20:49.826Z,28.60
2018-11-21T11:23:37.963Z,27.97
2018-11-21T11:26:30.617Z,31.03
2018-11-21T11:29:18.855Z,28.43
2018-11-21T11:32:05.747Z,27.83
2018-11-21T11:35:10.272Z,28.77
2018-11-21T11:38:17.992Z,28.47
2018-11-21T11:41:13.405Z,28.70
2018-11-21T11:44:11.969Z,27.60
2018-11-21T11:46:59.827Z,27.67
2018-11-21T11:49:57.795Z,29.43
2018-11-21T11:52:48.025Z,29.80
2018-11-21T11:55:32.497Z,28.20
2018-11-21T11:58:25.086Z,27.83
2018-11-21T12:01:20.091Z,27.83
2018-11-21T12:04:08.332Z,30.33
2018-11-21T12:07:01.699Z,29.27
2018-11-21T12:10:06.017Z,29.53
2018-11-21T12:12:58.971Z,29.10
2018-11-21T12:15:48.527Z,30.13
2018-11-21T12:18:38.019Z,28.57
2018-11-21T12:21:27.390Z,28.47
2018-11-21T12:24:15.120Z,28.73
2018-11-21T12:27:07.255Z,28.63
2018-11-21T12:30:07.071Z,26.37
2018-11-21T12:33:02.175Z,30.57
2018-11-21T12:35:50.214Z,27.10
2018-11-21T12:38:42.658Z,27.00
2018-11-21T12:41:41.139Z,27.47
2018-11-21T12:44:33.275Z,28.40
2018-11-21T12:47:41.178Z,25.83
2018-11-21T12:50:43.147Z,25.63
2018-11-21T12:53:40.381Z,29.27
2018-11-21T12:56:28.744Z,28.23
2018-11-21T12:59:18.320Z,31.23
2018-11-21T13:02:06.565Z,30.97
2018-11-21T13:05:00.225Z,31.50
2018-11-21T13:07:50.512Z,30.77
2018-11-21T13:10:49.317Z,28.97
2018-11-21T13:13:41.556Z,31.27
2018-11-21T13:16:30.928Z,28.23
2018-11-21T13:19:20.295Z,25.23
2018-11-21T13:22:07.597Z,29.37
2018-11-21T13:24:57.601Z,29.87
2018-11-21T13:27:47.279Z,28.10
2018-11-21T13:30:36.647Z,26.73
2018-11-21T13:33:25.609Z,30.60
2018-11-21T13:36:08.835Z,29.07
2018-11-21T13:39:07.425Z,26.57
2018-11-21T13:41:55.816Z,26.23
2018-11-21T13:44:44.011Z,29.03
2018-11-21T13:47:37.997Z,30.30
2018-11-21T13:50:34.119Z,27.20
2018-11-21T13:53:33.422Z,26.80
2018-11-21T13:56:04.268Z,23.03
2018-11-21T13:58:36.032Z,27.53
2018-11-21T14:01:11.355Z,28.37
2018-11-21T14:03:45.769Z,27.90
2018-11-21T14:06:16.805Z,22.87
2018-11-21T14:08:47.500Z,25.40
2018-11-21T14:11:18.589Z,28.70
2018-11-21T14:13:50.985Z,24.10
2018-11-21T14:16:22.179Z,23.43
2018-11-21T14:18:53.348Z,25.03
2018-11-21T14:21:24.289Z,23.60
2018-11-21T14:23:56.295Z,21.33
2018-11-21T14:26:28.250Z,21.67
2018-11-21T14:28:59.943Z,24.27
2018-11-21T14:31:32.455Z,23.40
2018-11-21T14:34:04.696Z,22.80
2018-11-21T14:36:36.939Z,22.63
2018-11-21T14:39:13.671Z,18.47
2018-11-21T14:41:48.759Z,18.80
2018-11-21T14:44:21.292Z,18.93
2018-11-21T14:46:53.966Z,18.27
2018-11-21T14:49:26.004Z,18.67
2018-11-21T14:51:58.033Z,18.07
2018-11-21T14:54:28.804Z,19.80
2018-11-21T14:56:59.537Z,19.63
2018-11-21T14:59:30.388Z,19.30
2018-11-21T15:02:01.145Z,19.53
2018-11-21T15:04:32.148Z,19.27
2018-11-21T15:07:02.973Z,17.07
2018-11-21T15:09:33.767Z,15.73
2018-11-21T15:12:04.655Z,19.83
2018-11-21T15:14:35.547Z,17.43
2018-11-21T15:17:06.517Z,14.80
2018-11-21T15:19:37.254Z,13.33
2018-11-21T15:22:07.996Z,18.17
2018-11-21T15:24:38.836Z,13.97
2018-11-21T15:27:09.749Z,16.87
2018-11-21T15:29:40.613Z,15.87
2018-11-21T15:32:11.392Z,16.20
2018-11-21T15:34:42.302Z,13.70
2018-11-21T15:37:13.225Z,12.53
2018-11-21T15:39:44.460Z,15.10
2018-11-21T15:42:15.356Z,13.27
2018-11-21T15:44:47.256Z,12.00
2018-11-21T15:47:18.094Z,15.00
2018-11-21T15:49:48.997Z,14.47
2018-11-21T15:52:19.868Z,11.37
2018-11-21T15:54:50.676Z,13.43
2018-11-21T15:57:21.544Z,13.60
2018-11-21T15:59:52.311Z,14.63
2018-11-21T16:02:23.052Z,15.93
2018-11-21T16:04:53.932Z,13.57
2018-11-21T16:07:24.560Z,15.47
2018-11-21T16:09:55.349Z,13.83
2018-11-21T16:12:26.154Z,17.07
2018-11-21T16:14:56.853Z,12.73
2018-11-21T16:17:27.813Z,14.67
2018-11-21T16:19:58.765Z,13.77
2018-11-21T16:22:30.622Z,14.50
2018-11-21T16:25:01.462Z,15.57
2018-11-21T16:27:32.241Z,18.43
2018-11-21T16:30:03.019Z,17.03
2018-11-21T16:32:33.703Z,20.53
2018-11-21T16:35:08.184Z,18.10
2018-11-21T16:37:35.577Z,19.53
2018-11-21T16:40:07.971Z,20.97
2018-11-21T16:42:39.139Z,20.30
2018-11-21T16:45:12.226Z,20.00
2018-11-21T16:47:43.166Z,21.87
2018-11-21T16:50:15.652Z,22.63
2018-11-21T16:52:46.434Z,26.70
2018-11-21T16:55:19.170Z,24.67
2018-11-21T16:57:50.613Z,21.30
2018-11-21T17:00:25.790Z,24.23
2018-11-21T17:02:56.755Z,26.30
2018-11-21T17:05:28.281Z,24.90
2018-11-21T17:07:59.169Z,21.83
2018-11-21T17:10:31.223Z,23.33
2018-11-21T17:13:01.923Z,23.23
2018-11-21T17:15:34.031Z,24.57
2018-11-21T17:18:05.137Z,26.40
2018-11-21T17:20:38.093Z,24.60
2018-11-21T17:23:08.951Z,32.03
2018-11-21T17:25:40.682Z,24.87
2018-11-21T17:28:11.503Z,27.83
2018-11-21T17:30:42.178Z,25.37
2018-11-21T17:33:13.589Z,22.40
2018-11-21T17:35:44.249Z,21.60
2018-11-21T17:38:14.985Z,24.97
2018-11-21T17:40:46.380Z,23.70
2018-11-21T17:43:17.275Z,25.03
2018-11-21T17:45:48.009Z,23.87
2018-11-21T17:48:18.821Z,25.17
2018-11-21T17:50:49.562Z,27.97
2018-11-21T17:53:20.293Z,31.27
2018-11-21T17:55:51.189Z,26.73
2018-11-21T17:58:21.865Z,27.10
2018-11-21T18:00:52.609Z,26.27
2018-11-21T18:03:23.595Z,27.30
2018-11-21T18:05:54.452Z,25.23
2018-11-21T18:08:25.369Z,28.53
2018-11-21T18:10:56.192Z,29.83
2018-11-21T18:13:26.969Z,26.00
2018-11-21T18:15:57.883Z,24.93
2018-11-21T18:18:28.741Z,29.47
2018-11-21T18:20:59.485Z,23.53
2018-11-21T18:23:30.485Z,25.47
2018-11-21T18:26:01.393Z,27.90
2018-11-21T18:28:32.220Z,21.80
2018-11-21T18:31:06.314Z,25.50
2018-11-21T18:33:37.899Z,28.97
2018-11-21T18:36:08.773Z,28.13
2018-11-21T18:38:39.588Z,30.80
2018-11-21T18:41:10.393Z,31.47
2018-11-21T18:43:41.934Z,34.77
2018-11-21T18:46:12.819Z,31.83
2018-11-21T18:48:43.723Z,32.40
2018-11-21T18:51:14.464Z,34.13
2018-11-21T18:53:45.339Z,35.83
2018-11-21T18:56:32.985Z,30.80
2018-11-21T18:59:49.894Z,31.60
2018-11-21T19:02:20.686Z,31.83
2018-11-21T19:04:51.402Z,31.40
2018-11-21T19:07:22.185Z,37.03
2018-11-21T19:09:53.112Z,37.43
2018-11-21T19:12:23.957Z,36.03
2018-11-21T19:14:55.287Z,30.97
2018-11-21T19:17:26.131Z,31.83
2018-11-21T19:19:57.069Z,37.13
2018-11-21T19:22:28.108Z,30.07
2018-11-21T19:24:58.946Z,29.60
2018-11-21T19:27:29.719Z,28.80
2018-11-21T19:30:00.737Z,29.30
2018-11-21T19:32:31.493Z,31.37
2018-11-21T19:35:02.350Z,30.87
2018-11-21T19:37:33.146Z,30.40
2018-11-21T19:40:04.453Z,30.57
2018-11-21T19:42:35.411Z,32.30
2018-11-21T19:45:06.803Z,26.60
2018-11-21T19:47:37.778Z,26.77
2018-11-21T19:50:13.665Z,29.77
2018-11-21T19:52:45.549Z,26.13
2018-11-21T19:55:18.172Z,31.87
2018-11-21T19:57:49.110Z,35.73
2018-11-21T20:00:22.135Z,39.63
2018-11-21T20:02:53.301Z,41.40
2018-11-21T20:05:24.310Z,40.90
2018-11-21T20:07:55.250Z,37.30
2018-11-21T20:10:26.378Z,35.47
2018-11-21T20:12:57.184Z,35.97
2018-11-21T20:15:28.868Z,35.63
2018-11-21T20:18:00.961Z,39.73
2018-11-21T20:20:31.949Z,42.00
2018-11-21T20:23:06.529Z,37.10
2018-11-21T20:25:33.895Z,37.17
2018-11-21T20:28:04.891Z,41.50
2018-11-21T20:30:37.835Z,39.47
2018-11-21T20:33:08.670Z,35.73
2018-11-21T20:35:39.750Z,38.07
2018-11-21T20:38:10.803Z,34.67
2018-11-21T20:40:42.142Z,34.27
2018-11-21T20:43:12.928Z,39.47
2018-11-21T20:45:43.812Z,28.57
2018-11-21T20:48:14.600Z,41.70
2018-11-21T20:50:45.421Z,39.67
2018-11-21T20:53:16.209Z,29.87
2018-11-21T20:55:47.006Z,29.13
2018-11-21T20:58:17.738Z,29.30
2018-11-21T21:00:48.723Z,37.67
2018-11-21T21:03:19.660Z,30.33
2018-11-21T21:05:50.526Z,27.43
2018-11-21T21:08:21.407Z,29.40
2018-11-21T21:10:52.235Z,35.93
2018-11-21T21:13:23.076Z,32.73
2018-11-21T21:15:53.932Z,34.83
2018-11-21T21:18:24.775Z,29.33
2018-11-21T21:20:55.682Z,32.97
2018-11-21T21:23:26.654Z,31.87
2018-11-21T21:25:57.518Z,31.97
2018-11-21T21:28:28.379Z,33.60
2018-11-21T21:30:59.262Z,32.07
2018-11-21T21:33:30.052Z,32.03
2018-11-21T21:36:00.894Z,32.77
2018-11-21T21:38:31.806Z,34.20
2018-11-21T21:41:02.562Z,32.30
2018-11-21T21:43:33.290Z,29.83
2018-11-21T21:46:07.831Z,31.83
2018-11-21T21:48:34.916Z,34.40
2018-11-21T21:51:05.821Z,27.70
2018-11-21T21:53:36.785Z,27.53
2018-11-21T21:56:07.824Z,27.60
2018-11-21T21:58:38.608Z,26.60
2018-11-21T22:01:09.499Z,27.70
2018-11-21T22:03:40.281Z,31.10
2018-11-21T22:06:11.172Z,27.97
2018-11-21T22:08:42.085Z,26.90
2018-11-21T22:11:12.955Z,28.70
2018-11-21T22:13:43.725Z,26.90
2018-11-21T22:16:14.609Z,25.80
2018-11-21T22:18:45.438Z,24.50
2018-11-21T22:21:16.237Z,27.13
2018-11-21T22:23:47.132Z,24.17
2018-11-21T22:26:17.939Z,26.93
2018-11-21T22:28:48.805Z,30.23
2018-11-21T22:31:19.729Z,26.83
2018-11-21T22:33:50.529Z,30.80
2018-11-21T22:36:21.354Z,32.33
2018-11-21T22:38:52.239Z,33.77
2018-11-21T22:41:22.905Z,32.17
2018-11-21T22:43:53.663Z,30.87
2018-11-21T22:46:24.450Z,32.50
2018-11-21T22:48:55.140Z,33.63
2018-11-21T22:51:25.912Z,31.80
2018-11-21T22:53:56.739Z,33.53
2018-11-21T22:56:27.677Z,35.63
2018-11-21T22:58:58.453Z,36.30
2018-11-21T23:01:31.328Z,37.50
2018-11-21T23:04:02.026Z,34.77
2018-11-21T23:06:32.863Z,35.37
2018-11-21T23:09:04.577Z,31.73
2018-11-21T23:11:35.297Z,32.47
2018-11-21T23:14:06.484Z,28.73
2018-11-21T23:16:37.406Z,23.13
2018-11-21T23:19:08.272Z,29.27
2018-11-21T23:21:39.085Z,27.93
2018-11-21T23:24:09.945Z,24.27
2018-11-21T23:26:40.945Z,22.80
2018-11-21T23:29:11.817Z,22.03
2018-11-21T23:31:42.754Z,26.20
2018-11-21T23:34:13.590Z,26.40
2018-11-21T23:36:44.425Z,28.40
2018-11-21T23:39:15.271Z,25.10
2018-11-21T23:41:46.046Z,23.77
2018-11-21T23:44:16.795Z,24.40
2018-11-21T23:46:47.649Z,29.07
2018-11-21T23:49:18.465Z,27.67
2018-11-21T23:51:49.178Z,27.90
2018-11-21T23:54:19.957Z,25.63
2018-11-21T23:57:15.541Z,27.57
2018-11-21T23:59:21.649Z,24.13
